createdAt,value
2023-08-04T00:01:33.234Z,3.67
2023-08-04T00:03:59.618Z,3.65
2023-08-04T00:06:26.041Z,2.75
2023-08-04T00:08:52.564Z,2.92
2023-08-04T00:11:19.192Z,2.75
2023-08-04T00:13:45.611Z,2.80
2023-08-04T00:16:12.153Z,3.53
2023-08-04T00:18:38.711Z,3.40
2023-08-04T00:21:05.146Z,3.03
2023-08-04T00:23:31.465Z,3.00
2023-08-04T00:25:57.839Z,4.70
2023-08-04T00:28:24.383Z,3.08
2023-08-04T00:30:50.814Z,2.85
2023-08-04T00:33:17.525Z,3.05
2023-08-04T00:35:43.935Z,2.97
2023-08-04T00:38:10.286Z,3.00
2023-08-04T00:40:37.679Z,3.33
2023-08-04T00:43:04.449Z,2.72
2023-08-04T00:45:31.803Z,2.88
2023-08-04T00:47:58.256Z,3.40
2023-08-04T00:50:24.647Z,2.80
2023-08-04T00:52:51.439Z,2.60
2023-08-04T00:55:18.395Z,2.63
2023-08-04T00:57:44.884Z,2.67
2023-08-04T01:00:11.563Z,2.95
2023-08-04T01:02:38.120Z,2.47
2023-08-04T01:05:04.982Z,2.60
2023-08-04T01:07:36.501Z,2.95
2023-08-04T01:10:05.604Z,3.00
2023-08-04T01:12:31.929Z,2.95
2023-08-04T01:14:58.612Z,3.50
2023-08-04T01:17:27.279Z,3.25
2023-08-04T01:19:54.070Z,2.65
2023-08-04T01:22:21.671Z,3.10
2023-08-04T01:24:48.271Z,3.70
2023-08-04T01:27:16.752Z,2.30
2023-08-04T01:29:44.373Z,3.05
2023-08-04T01:32:10.865Z,3.08
2023-08-04T01:34:37.378Z,2.90
2023-08-04T01:37:04.425Z,2.53
2023-08-04T01:39:30.809Z,2.53
2023-08-04T01:41:57.372Z,2.50
2023-08-04T01:44:23.796Z,2.70
2023-08-04T01:46:50.178Z,2.63
2023-08-04T01:49:16.601Z,2.40
2023-08-04T01:51:42.924Z,2.53
2023-08-04T01:54:09.374Z,2.53
2023-08-04T01:56:35.685Z,3.17
2023-08-04T01:59:02.012Z,2.30
2023-08-04T02:01:28.391Z,2.72
2023-08-04T02:03:54.739Z,3.00
2023-08-04T02:06:21.157Z,2.67
2023-08-04T02:08:47.670Z,2.72
2023-08-04T02:11:14.084Z,2.90
2023-08-04T02:13:40.426Z,2.97
2023-08-04T02:16:06.878Z,2.92
2023-08-04T02:18:33.407Z,2.70
2023-08-04T02:20:59.805Z,2.90
2023-08-04T02:23:26.703Z,3.35
2023-08-04T02:25:53.109Z,3.10
2023-08-04T02:28:19.521Z,3.03
2023-08-04T02:30:47.672Z,2.47
2023-08-04T02:33:15.056Z,3.35
2023-08-04T02:35:41.504Z,4.13
2023-08-04T02:38:07.842Z,3.70
2023-08-04T02:40:39.995Z,4.47
2023-08-04T02:43:06.385Z,3.28
2023-08-04T02:45:33.204Z,3.45
2023-08-04T02:47:59.631Z,3.28
2023-08-04T02:50:26.023Z,3.30
2023-08-04T02:52:52.360Z,2.90
2023-08-04T02:55:18.756Z,3.35
2023-08-04T02:57:45.153Z,3.03
2023-08-04T03:00:12.270Z,4.18
2023-08-04T03:02:38.775Z,3.65
2023-08-04T03:05:05.351Z,3.60
2023-08-04T03:07:33.405Z,3.42
2023-08-04T03:09:59.824Z,3.40
2023-08-04T03:12:26.183Z,2.58
2023-08-04T03:14:52.536Z,2.97
2023-08-04T03:17:18.944Z,3.08
2023-08-04T03:19:45.381Z,2.70
2023-08-04T03:22:11.725Z,3.15
2023-08-04T03:24:38.216Z,3.15
2023-08-04T03:27:04.692Z,4.53
2023-08-04T03:29:31.055Z,2.92
2023-08-04T03:31:57.440Z,3.50
2023-08-04T03:34:24.020Z,3.80
2023-08-04T03:36:50.584Z,2.72
2023-08-04T03:39:17.467Z,3.28
2023-08-04T03:41:43.995Z,3.33
2023-08-04T03:44:10.340Z,3.13
2023-08-04T03:46:36.863Z,2.88
2023-08-04T03:49:03.380Z,3.38
2023-08-04T03:51:29.755Z,3.42
2023-08-04T03:53:56.083Z,3.35
2023-08-04T03:56:22.462Z,3.70
2023-08-04T03:58:50.608Z,4.22
2023-08-04T04:01:18.827Z,3.15
2023-08-04T04:03:45.351Z,3.70
2023-08-04T04:06:11.826Z,4.40
2023-08-04T04:08:38.251Z,3.85
2023-08-04T04:11:05.031Z,4.07
2023-08-04T04:13:31.430Z,3.40
2023-08-04T04:15:57.787Z,3.42
2023-08-04T04:18:24.231Z,3.22
2023-08-04T04:20:50.727Z,2.80
2023-08-04T04:23:17.511Z,2.97
2023-08-04T04:25:43.965Z,3.28
2023-08-04T04:28:10.390Z,3.38
2023-08-04T04:30:36.847Z,3.28
2023-08-04T04:33:03.453Z,4.18
2023-08-04T04:35:29.858Z,3.28
2023-08-04T04:37:56.191Z,3.78
2023-08-04T04:40:22.595Z,4.88
2023-08-04T04:42:48.931Z,3.95
2023-08-04T04:45:15.255Z,3.42
2023-08-04T04:47:41.704Z,3.75
2023-08-04T04:50:08.258Z,2.88
2023-08-04T04:52:36.968Z,2.10
2023-08-04T04:55:03.786Z,2.47
2023-08-04T04:57:30.387Z,2.20
2023-08-04T04:59:56.855Z,2.53
2023-08-04T05:02:23.701Z,2.40
2023-08-04T05:04:50.093Z,2.50
2023-08-04T05:07:16.567Z,2.80
2023-08-04T05:09:43.015Z,3.17
2023-08-04T05:12:09.378Z,2.92
2023-08-04T05:14:35.907Z,3.13
2023-08-04T05:17:02.306Z,3.40
2023-08-04T05:19:28.784Z,3.38
2023-08-04T05:21:55.143Z,3.15
2023-08-04T05:24:21.514Z,3.80
2023-08-04T05:26:47.895Z,3.42
2023-08-04T05:29:14.219Z,3.13
2023-08-04T05:31:40.663Z,3.55
2023-08-04T05:34:07.037Z,5.60
2023-08-04T05:36:33.474Z,3.83
2023-08-04T05:38:59.827Z,3.05
2023-08-04T05:41:26.187Z,3.75
2023-08-04T05:43:52.612Z,4.50
2023-08-04T05:46:19.005Z,3.92
2023-08-04T05:48:45.352Z,3.45
2023-08-04T05:51:11.940Z,3.28
2023-08-04T05:53:39.245Z,3.95
2023-08-04T05:56:05.730Z,3.47
2023-08-04T05:58:32.123Z,3.60
2023-08-04T06:00:58.534Z,3.30
2023-08-04T06:03:24.922Z,3.50
2023-08-04T06:05:51.535Z,3.42
2023-08-04T06:08:17.899Z,3.17
2023-08-04T06:10:44.278Z,4.20
2023-08-04T06:13:10.632Z,3.78
2023-08-04T06:15:36.983Z,3.70
2023-08-04T06:18:03.561Z,3.30
2023-08-04T06:20:30.107Z,3.45
2023-08-04T06:22:56.526Z,3.45
2023-08-04T06:25:22.948Z,3.38
2023-08-04T06:27:51.077Z,3.60
2023-08-04T06:30:17.746Z,3.50
2023-08-04T06:32:44.219Z,3.80
2023-08-04T06:35:10.596Z,3.58
2023-08-04T06:37:36.970Z,3.45
2023-08-04T06:40:04.730Z,3.88
2023-08-04T06:42:31.375Z,4.13
2023-08-04T06:44:57.728Z,3.92
2023-08-04T06:47:24.552Z,3.15
2023-08-04T06:49:50.900Z,2.90
2023-08-04T06:52:17.723Z,2.70
2023-08-04T06:54:44.185Z,3.03
2023-08-04T06:57:10.566Z,3.33
2023-08-04T06:59:36.914Z,3.30
2023-08-04T07:02:03.429Z,3.60
2023-08-04T07:04:29.760Z,3.38
2023-08-04T07:06:57.314Z,4.15
2023-08-04T07:09:23.865Z,3.53
2023-08-04T07:11:50.533Z,3.63
2023-08-04T07:14:17.126Z,3.22
2023-08-04T07:16:47.862Z,4.10
2023-08-04T07:19:15.010Z,3.20
2023-08-04T07:21:41.789Z,3.63
2023-08-04T07:24:08.566Z,3.25
2023-08-04T07:26:35.747Z,3.85
2023-08-04T07:29:02.561Z,3.25
2023-08-04T07:31:28.952Z,3.22
2023-08-04T07:33:56.778Z,3.55
2023-08-04T07:36:23.243Z,3.67
2023-08-04T07:38:49.565Z,3.70
2023-08-04T07:41:19.687Z,2.80
2023-08-04T07:43:46.123Z,3.05
2023-08-04T07:46:19.558Z,2.65
2023-08-04T07:48:46.086Z,3.63
2023-08-04T07:51:12.481Z,3.20
2023-08-04T07:53:38.906Z,2.78
2023-08-04T07:56:05.325Z,2.80
2023-08-04T07:58:31.669Z,2.65
2023-08-04T08:00:58.225Z,2.40
2023-08-04T08:03:24.863Z,1.83
2023-08-04T08:05:51.272Z,1.83
2023-08-04T08:08:18.683Z,1.90
2023-08-04T08:10:45.276Z,1.52
2023-08-04T08:13:11.694Z,2.05
2023-08-04T08:15:38.284Z,1.65
2023-08-04T08:18:04.896Z,1.85
2023-08-04T08:20:31.441Z,1.55
2023-08-04T08:22:58.003Z,1.80
2023-08-04T08:25:24.316Z,1.83
2023-08-04T08:27:50.694Z,2.85
2023-08-04T08:30:17.260Z,1.40
2023-08-04T08:32:43.762Z,1.80
2023-08-04T08:35:10.234Z,1.30
2023-08-04T08:37:36.820Z,1.15
2023-08-04T08:40:03.524Z,1.30
2023-08-04T08:42:29.913Z,1.38
2023-08-04T08:44:56.369Z,1.60
2023-08-04T08:47:23.203Z,1.45
2023-08-04T08:49:56.442Z,1.55
2023-08-04T08:52:23.968Z,1.70
2023-08-04T08:54:50.543Z,1.55
2023-08-04T08:57:17.095Z,1.80
2023-08-04T08:59:43.504Z,1.60
2023-08-04T09:02:10.078Z,1.60
2023-08-04T09:04:38.767Z,1.88
2023-08-04T09:07:05.291Z,1.42
2023-08-04T09:09:31.656Z,2.13
2023-08-04T09:11:58.298Z,1.75
2023-08-04T09:14:24.712Z,1.58
2023-08-04T09:16:51.151Z,1.52
2023-08-04T09:19:18.095Z,1.80
2023-08-04T09:21:44.951Z,1.40
2023-08-04T09:24:14.391Z,2.10
2023-08-04T09:26:44.992Z,1.45
2023-08-04T09:29:11.717Z,1.58
2023-08-04T09:31:42.088Z,1.40
2023-08-04T09:34:09.237Z,2.10
2023-08-04T09:36:43.125Z,1.58
2023-08-04T09:39:13.283Z,1.70
2023-08-04T09:41:42.799Z,1.27
2023-08-04T09:44:09.791Z,1.63
2023-08-04T09:46:40.431Z,1.38
2023-08-04T09:49:08.350Z,1.48
2023-08-04T09:51:40.073Z,1.75
2023-08-04T09:54:06.448Z,1.52
2023-08-04T09:56:33.616Z,1.63
2023-08-04T09:59:00.028Z,1.08
2023-08-04T10:01:26.534Z,1.77
2023-08-04T10:03:55.303Z,1.85
2023-08-04T10:06:22.224Z,1.75
2023-08-04T10:08:49.482Z,1.80
2023-08-04T10:11:16.240Z,1.27
2023-08-04T10:13:44.232Z,1.77
2023-08-04T10:16:13.032Z,1.65
2023-08-04T10:19:06.043Z,1.50
2023-08-04T10:21:40.209Z,1.83
2023-08-04T10:24:09.000Z,1.58
2023-08-04T10:26:35.946Z,1.55
2023-08-04T10:29:06.828Z,1.75
2023-08-04T10:31:49.264Z,1.80
2023-08-04T10:34:25.560Z,1.70
2023-08-04T10:37:02.869Z,1.50
2023-08-04T10:39:32.563Z,1.63
2023-08-04T10:41:59.909Z,1.58
2023-08-04T10:44:47.771Z,1.58
2023-08-04T10:47:14.387Z,1.30
2023-08-04T10:49:41.298Z,1.10
2023-08-04T10:52:07.929Z,1.38
2023-08-04T10:54:34.623Z,1.33
2023-08-04T10:57:01.040Z,1.60
2023-08-04T10:59:27.417Z,1.48
2023-08-04T11:01:53.916Z,1.10
2023-08-04T11:04:21.400Z,2.00
2023-08-04T11:06:49.512Z,2.40
2023-08-04T11:09:15.948Z,2.22
2023-08-04T11:11:42.477Z,1.60
2023-08-04T11:14:09.103Z,1.63
2023-08-04T11:16:37.589Z,1.30
2023-08-04T11:19:04.583Z,1.50
2023-08-04T11:21:31.474Z,1.40
2023-08-04T11:23:57.890Z,1.60
2023-08-04T11:26:24.340Z,1.10
2023-08-04T11:28:51.148Z,1.20
2023-08-04T11:31:21.332Z,0.90
2023-08-04T11:33:48.045Z,1.27
2023-08-04T11:36:14.444Z,0.80
2023-08-04T11:38:40.855Z,0.90
2023-08-04T11:41:10.171Z,1.20
2023-08-04T11:43:36.791Z,1.08
2023-08-04T11:46:10.258Z,1.00
2023-08-04T11:48:40.000Z,1.20
2023-08-04T11:51:06.878Z,1.02
2023-08-04T11:53:33.479Z,1.02
2023-08-04T11:56:01.211Z,1.40
2023-08-04T11:58:37.682Z,1.30
2023-08-04T12:01:04.758Z,1.30
2023-08-04T12:04:00.505Z,1.20
2023-08-04T12:08:54.979Z,1.10
2023-08-04T12:11:22.333Z,1.38
2023-08-04T12:13:49.131Z,1.20
2023-08-04T12:16:16.424Z,1.30
2023-08-04T12:18:43.343Z,0.93
2023-08-04T12:21:13.098Z,1.25
2023-08-04T12:23:39.679Z,1.10
2023-08-04T12:26:06.475Z,1.17
2023-08-04T12:28:32.888Z,1.23
2023-08-04T12:31:14.638Z,1.50
2023-08-04T12:33:42.154Z,1.00
2023-08-04T12:36:08.495Z,1.42
2023-08-04T12:38:34.871Z,1.25
2023-08-04T12:41:01.330Z,1.00
2023-08-04T12:43:28.036Z,1.15
2023-08-04T12:45:54.573Z,1.10
2023-08-04T12:48:21.191Z,1.40
2023-08-04T12:50:48.056Z,1.13
2023-08-04T12:53:15.989Z,1.15
2023-08-04T12:55:42.517Z,0.98
2023-08-04T12:58:08.989Z,1.02
2023-08-04T13:00:35.360Z,1.20
2023-08-04T13:03:01.799Z,0.95
2023-08-04T13:05:28.339Z,1.10
2023-08-04T13:07:54.859Z,1.08
2023-08-04T13:10:21.284Z,1.55
2023-08-04T13:12:47.642Z,1.13
2023-08-04T13:15:13.989Z,1.25
2023-08-04T13:17:40.554Z,1.00
2023-08-04T13:20:09.688Z,0.90
2023-08-04T13:22:36.728Z,1.20
2023-08-04T13:25:04.670Z,1.30
2023-08-04T13:27:31.566Z,1.20
2023-08-04T13:29:58.210Z,1.63
2023-08-04T13:32:24.728Z,0.93
2023-08-04T13:34:51.330Z,1.15
2023-08-04T13:37:17.777Z,0.80
2023-08-04T13:39:44.193Z,1.30
2023-08-04T13:42:10.532Z,0.88
2023-08-04T13:44:36.951Z,1.13
2023-08-04T13:47:04.029Z,1.02
2023-08-04T13:49:30.544Z,1.45
2023-08-04T13:51:56.936Z,1.40
2023-08-04T13:54:23.420Z,1.10
2023-08-04T13:56:49.829Z,1.27
2023-08-04T13:59:16.899Z,1.25
2023-08-04T14:01:43.632Z,1.45
2023-08-04T14:04:10.192Z,1.20
2023-08-04T14:06:36.711Z,1.25
2023-08-04T14:09:03.752Z,1.70
2023-08-04T14:11:30.185Z,3.00
2023-08-04T14:13:56.656Z,1.20
2023-08-04T14:16:23.181Z,1.20
2023-08-04T14:18:49.674Z,1.45
2023-08-04T14:21:16.216Z,1.02
2023-08-04T14:23:42.632Z,1.08
2023-08-04T14:26:09.246Z,0.80
2023-08-04T14:28:35.698Z,0.77
2023-08-04T14:31:02.107Z,1.13
2023-08-04T14:33:28.557Z,1.10
2023-08-04T14:35:55.138Z,1.40
2023-08-04T14:38:21.510Z,1.80
2023-08-04T14:40:48.026Z,1.00
2023-08-04T14:43:14.550Z,1.88
2023-08-04T14:45:40.952Z,5.97
2023-08-04T14:48:07.531Z,3.00
2023-08-04T14:50:39.503Z,2.42
2023-08-04T14:53:05.933Z,1.90
2023-08-04T14:55:34.745Z,0.90
2023-08-04T14:58:01.101Z,1.02
2023-08-04T15:00:27.485Z,0.90
2023-08-04T15:02:54.023Z,0.70
2023-08-04T15:05:20.661Z,0.82
2023-08-04T15:07:47.109Z,0.90
2023-08-04T15:10:13.638Z,0.80
2023-08-04T15:12:40.102Z,0.77
2023-08-04T15:15:06.898Z,0.90
2023-08-04T15:17:34.014Z,1.20
2023-08-04T15:20:00.727Z,1.25
2023-08-04T15:22:27.231Z,0.90
2023-08-04T15:24:53.734Z,1.00
2023-08-04T15:27:21.239Z,1.00
2023-08-04T15:29:47.565Z,1.67
2023-08-04T15:32:14.440Z,4.22
2023-08-04T15:34:40.972Z,5.85
2023-08-04T15:37:07.386Z,19.63
2023-08-04T15:39:33.979Z,61.30
2023-08-04T15:42:00.523Z,81.70
2023-08-04T15:44:26.910Z,73.47
2023-08-04T15:46:53.638Z,16.50
2023-08-04T15:49:20.376Z,17.27
2023-08-04T15:51:46.973Z,11.93
2023-08-04T15:54:15.865Z,14.45
2023-08-04T15:56:42.355Z,7.47
2023-08-04T15:59:08.821Z,2.50
2023-08-04T16:01:35.213Z,3.80
2023-08-04T16:04:01.694Z,4.57
2023-08-04T16:06:28.090Z,2.80
2023-08-04T16:08:54.476Z,3.55
2023-08-04T16:11:20.796Z,7.78
2023-08-04T16:13:47.172Z,10.52
2023-08-04T16:16:13.918Z,6.45
2023-08-04T16:18:41.512Z,50.28
2023-08-04T16:21:08.460Z,26.02
2023-08-04T16:23:35.639Z,28.17
2023-08-04T16:26:02.928Z,12.77
2023-08-04T16:28:32.041Z,12.82
2023-08-04T16:30:59.159Z,8.43
2023-08-04T16:33:25.671Z,7.22
2023-08-04T16:35:52.111Z,5.50
2023-08-04T16:38:18.478Z,3.53
2023-08-04T16:40:44.832Z,3.00
2023-08-04T16:43:11.283Z,1.70
2023-08-04T16:45:37.744Z,2.05
2023-08-04T16:48:04.360Z,2.03
2023-08-04T16:50:30.858Z,1.48
2023-08-04T16:52:57.252Z,1.60
2023-08-04T16:55:23.796Z,1.75
2023-08-04T16:57:50.232Z,1.17
2023-08-04T17:00:17.067Z,1.10
2023-08-04T17:02:44.357Z,2.45
2023-08-04T17:05:11.754Z,6.53
2023-08-04T17:07:39.070Z,1.50
2023-08-04T17:10:06.041Z,1.00
2023-08-04T17:12:32.916Z,1.40
2023-08-04T17:14:59.378Z,1.40
2023-08-04T17:17:25.772Z,1.40
2023-08-04T17:19:52.276Z,1.20
2023-08-04T17:22:18.744Z,1.30
2023-08-04T17:24:45.116Z,1.33
2023-08-04T17:27:11.474Z,1.20
2023-08-04T17:29:37.942Z,1.10
2023-08-04T17:32:04.873Z,1.40
2023-08-04T17:34:31.349Z,1.23
2023-08-04T17:36:57.720Z,1.25
2023-08-04T17:39:24.126Z,1.30
2023-08-04T17:41:50.596Z,1.20
2023-08-04T17:44:17.592Z,1.38
2023-08-04T17:46:43.935Z,1.80
2023-08-04T17:49:10.386Z,1.65
2023-08-04T17:51:36.825Z,1.30
2023-08-04T17:54:03.781Z,1.48
2023-08-04T17:56:30.163Z,1.70
2023-08-04T17:58:56.589Z,1.48
2023-08-04T18:01:23.080Z,1.50
2023-08-04T18:03:49.551Z,1.40
2023-08-04T18:06:17.545Z,1.85
2023-08-04T18:08:44.187Z,2.13
2023-08-04T18:11:10.792Z,2.13
2023-08-04T18:13:37.227Z,1.63
2023-08-04T18:16:05.010Z,2.30
2023-08-04T18:18:31.411Z,2.22
2023-08-04T18:20:58.986Z,1.50
2023-08-04T18:23:25.482Z,1.88
2023-08-04T18:25:54.640Z,1.77
2023-08-04T18:28:21.172Z,1.50
2023-08-04T18:30:52.814Z,1.70
2023-08-04T18:33:19.477Z,1.80
2023-08-04T18:35:46.003Z,1.63
2023-08-04T18:38:12.396Z,1.65
2023-08-04T18:40:38.810Z,1.58
2023-08-04T18:43:05.188Z,2.10
2023-08-04T18:45:32.562Z,1.50
2023-08-04T18:47:59.338Z,1.88
2023-08-04T18:50:25.713Z,2.22
2023-08-04T18:52:51.980Z,1.70
2023-08-04T18:55:18.397Z,2.85
2023-08-04T18:57:44.748Z,2.00
2023-08-04T19:00:11.434Z,2.25
2023-08-04T19:02:38.124Z,1.92
2023-08-04T19:05:04.705Z,2.05
2023-08-04T19:07:31.082Z,2.17
2023-08-04T19:09:57.423Z,2.25
2023-08-04T19:12:23.846Z,2.58
2023-08-04T19:14:50.218Z,1.83
2023-08-04T19:17:17.023Z,3.00
2023-08-04T19:19:43.384Z,2.15
2023-08-04T19:22:09.740Z,1.95
2023-08-04T19:24:36.082Z,2.00
2023-08-04T19:27:02.946Z,1.85
2023-08-04T19:29:29.325Z,2.38
2023-08-04T19:31:55.860Z,2.33
2023-08-04T19:34:22.278Z,2.08
2023-08-04T19:36:49.074Z,2.10
2023-08-04T19:39:16.012Z,2.58
2023-08-04T19:41:42.380Z,2.38
2023-08-04T19:44:08.892Z,2.30
2023-08-04T19:46:35.571Z,2.70
2023-08-04T19:49:02.252Z,3.30
2023-08-04T19:51:29.369Z,2.53
2023-08-04T19:53:55.815Z,2.70
2023-08-04T19:56:22.259Z,2.67
2023-08-04T19:58:48.596Z,2.80
2023-08-04T20:01:15.110Z,2.72
2023-08-04T20:03:41.661Z,2.78
2023-08-04T20:06:08.254Z,2.80
2023-08-04T20:08:36.400Z,2.90
2023-08-04T20:11:06.639Z,2.33
2023-08-04T20:13:33.998Z,2.85
2023-08-04T20:16:07.704Z,3.30
2023-08-04T20:18:35.011Z,3.03
2023-08-04T20:21:01.521Z,2.78
2023-08-04T20:23:27.840Z,2.90
2023-08-04T20:25:54.251Z,3.08
2023-08-04T20:28:20.762Z,3.53
2023-08-04T20:30:51.250Z,3.78
2023-08-04T20:33:17.917Z,3.30
2023-08-04T20:35:57.034Z,3.03
2023-08-04T20:38:23.592Z,3.33
2023-08-04T20:41:08.436Z,3.33
2023-08-04T20:43:36.878Z,3.53
2023-08-04T20:46:03.395Z,3.38
2023-08-04T20:48:29.917Z,3.28
2023-08-04T20:50:56.736Z,3.03
2023-08-04T20:53:23.751Z,2.83
2023-08-04T20:55:51.168Z,3.22
2023-08-04T20:58:19.275Z,3.40
2023-08-04T21:00:47.232Z,3.40
2023-08-04T21:03:13.828Z,3.45
2023-08-04T21:05:40.278Z,3.33
2023-08-04T21:08:06.709Z,3.42
2023-08-04T21:10:33.160Z,3.10
2023-08-04T21:12:59.584Z,3.33
2023-08-04T21:15:26.051Z,3.03
2023-08-04T21:17:52.605Z,2.65
2023-08-04T21:20:19.063Z,3.40
2023-08-04T21:22:45.464Z,3.67
2023-08-04T21:25:12.202Z,3.13
2023-08-04T21:27:39.010Z,4.00
2023-08-04T21:30:05.829Z,3.33
2023-08-04T21:32:32.436Z,2.92
2023-08-04T21:35:00.245Z,3.35
2023-08-04T21:37:27.118Z,2.67
2023-08-04T21:39:53.952Z,3.33
2023-08-04T21:42:20.658Z,2.78
2023-08-04T21:44:47.307Z,3.40
2023-08-04T21:47:13.800Z,2.97
2023-08-04T21:49:40.380Z,3.00
2023-08-04T21:52:07.060Z,3.20
2023-08-04T21:54:34.181Z,2.75
2023-08-04T21:57:00.612Z,3.22
2023-08-04T21:59:27.014Z,2.40
2023-08-04T22:01:53.417Z,2.35
2023-08-04T22:04:19.794Z,3.13
2023-08-04T22:06:46.274Z,2.92
2023-08-04T22:09:12.682Z,2.72
2023-08-04T22:11:39.376Z,2.95
2023-08-04T22:14:05.736Z,3.13
2023-08-04T22:16:32.167Z,2.85
2023-08-04T22:18:58.528Z,3.15
2023-08-04T22:21:24.988Z,2.67
2023-08-04T22:23:51.604Z,3.35
2023-08-04T22:26:18.058Z,3.15
2023-08-04T22:28:44.425Z,2.92
2023-08-04T22:31:10.755Z,3.17
2023-08-04T22:33:37.254Z,3.95
2023-08-04T22:36:04.233Z,3.38
2023-08-04T22:38:30.786Z,3.40
2023-08-04T22:40:58.416Z,3.67
2023-08-04T22:43:25.317Z,3.28
2023-08-04T22:45:51.943Z,3.63
2023-08-04T22:48:18.341Z,3.35
2023-08-04T22:50:44.762Z,3.40
2023-08-04T22:53:11.102Z,3.40
2023-08-04T22:55:38.538Z,3.85
2023-08-04T22:58:05.514Z,3.20
2023-08-04T23:00:31.959Z,3.97
2023-08-04T23:02:58.521Z,3.72
2023-08-04T23:05:24.930Z,3.40
2023-08-04T23:07:51.267Z,3.38
2023-08-04T23:10:17.622Z,3.60
2023-08-04T23:12:44.133Z,3.70
2023-08-04T23:15:10.838Z,3.80
2023-08-04T23:17:37.374Z,3.45
2023-08-04T23:20:04.405Z,3.42
2023-08-04T23:22:30.880Z,4.13
2023-08-04T23:24:57.217Z,4.03
2023-08-04T23:27:23.539Z,4.10
2023-08-04T23:29:49.877Z,4.28
2023-08-04T23:32:17.301Z,4.18
2023-08-04T23:34:43.621Z,4.05
2023-08-04T23:37:09.994Z,4.20
2023-08-04T23:39:36.365Z,4.53
2023-08-04T23:42:02.929Z,3.90
2023-08-04T23:44:29.504Z,3.90
2023-08-04T23:46:55.949Z,3.70
2023-08-04T23:49:22.400Z,3.63
2023-08-04T23:51:48.968Z,3.90
2023-08-04T23:54:15.373Z,3.97
2023-08-04T23:56:41.686Z,3.67
2023-08-04T23:59:08.035Z,3.65
